createdAt,value
2022-11-26T00:01:17.721Z,175.90
2022-11-26T00:06:31.951Z,208.80
2022-11-26T00:11:37.656Z,169.80
2022-11-26T00:16:44.162Z,180.50
2022-11-26T00:21:50.093Z,177.90
2022-11-26T00:26:59.137Z,201.70
2022-11-26T00:32:05.696Z,191.70
2022-11-26T00:37:21.140Z,181.50
2022-11-26T00:42:27.130Z,180.80
2022-11-26T00:47:32.908Z,192.30
2022-11-26T00:52:38.943Z,183.70
2022-11-26T00:57:44.984Z,166.20
2022-11-26T01:02:50.889Z,171.00
2022-11-26T01:08:02.476Z,186.20
2022-11-26T01:13:11.129Z,173.10
2022-11-26T01:18:20.104Z,174.70
2022-11-26T01:23:26.287Z,160.10
2022-11-26T01:28:31.898Z,186.90
2022-11-26T01:33:37.649Z,185.20
2022-11-26T01:38:43.654Z,185.40
2022-11-26T01:43:52.020Z,171.20
2022-11-26T01:49:18.913Z,182.10
2022-11-26T01:54:24.872Z,193.90
2022-11-26T01:59:37.363Z,174.60
2022-11-26T02:04:49.335Z,176.00
2022-11-26T02:09:55.146Z,170.50
2022-11-26T02:15:00.807Z,189.80
2022-11-26T02:20:35.365Z,209.10
2022-11-26T02:26:06.856Z,187.10
2022-11-26T02:31:16.656Z,170.60
2022-11-26T02:36:27.897Z,200.80
2022-11-26T02:41:43.872Z,204.00
2022-11-26T02:46:54.482Z,185.60
2022-11-26T02:52:02.848Z,178.30
2022-11-26T02:57:13.044Z,189.40
2022-11-26T03:02:24.743Z,224.60
2022-11-26T03:07:34.421Z,177.80
2022-11-26T03:12:40.361Z,184.70
2022-11-26T03:17:46.394Z,194.30
2022-11-26T03:22:52.124Z,217.50
2022-11-26T03:27:57.809Z,200.10
2022-11-26T03:33:03.569Z,201.20
2022-11-26T03:38:09.689Z,179.70
2022-11-26T03:43:15.332Z,216.00
2022-11-26T03:48:21.204Z,245.40
2022-11-26T03:53:27.535Z,211.80
2022-11-26T03:58:33.280Z,185.90
2022-11-26T04:03:39.789Z,173.70
2022-11-26T04:08:46.431Z,184.20
2022-11-26T04:13:52.108Z,166.80
2022-11-26T04:18:57.909Z,153.20
2022-11-26T04:24:03.650Z,139.50
2022-11-26T04:29:09.296Z,153.90
2022-11-26T04:34:15.020Z,136.10
2022-11-26T04:39:21.113Z,127.20
2022-11-26T04:44:26.989Z,117.20
2022-11-26T04:49:32.885Z,119.80
2022-11-26T04:54:38.788Z,117.60
2022-11-26T04:59:44.820Z,106.60
2022-11-26T05:04:51.810Z,94.90
2022-11-26T05:09:57.603Z,102.00
2022-11-26T05:15:03.890Z,109.10
2022-11-26T05:20:11.531Z,98.20
2022-11-26T05:25:17.736Z,93.70
2022-11-26T05:30:23.726Z,101.20
2022-11-26T05:35:29.682Z,103.80
2022-11-26T05:40:35.542Z,99.10
2022-11-26T05:45:41.329Z,94.80
2022-11-26T05:50:51.563Z,88.80
2022-11-26T05:56:00.159Z,93.50
2022-11-26T06:01:10.323Z,89.10
2022-11-26T06:06:16.157Z,86.00
2022-11-26T06:11:22.040Z,75.50
2022-11-26T06:16:27.983Z,74.80
2022-11-26T06:21:33.693Z,72.00
2022-11-26T06:26:39.633Z,63.50
2022-11-26T06:31:46.105Z,67.60
2022-11-26T06:36:52.141Z,60.50
2022-11-26T06:41:58.181Z,63.10
2022-11-26T06:47:04.220Z,60.40
2022-11-26T06:52:10.068Z,54.60
2022-11-26T06:57:16.085Z,55.90
2022-11-26T07:02:22.492Z,61.10
2022-11-26T07:07:28.428Z,55.20
2022-11-26T07:12:34.416Z,57.20
2022-11-26T07:17:40.018Z,62.40
2022-11-26T07:22:46.497Z,59.30
2022-11-26T07:27:52.330Z,57.40
2022-11-26T07:32:58.079Z,48.30
2022-11-26T07:38:04.408Z,54.60
2022-11-26T07:43:11.552Z,54.90
2022-11-26T07:48:22.791Z,61.00
2022-11-26T07:53:32.586Z,59.40
2022-11-26T07:58:39.971Z,55.30
2022-11-26T08:03:48.452Z,66.60
2022-11-26T08:08:54.381Z,63.10
2022-11-26T08:14:02.662Z,63.10
2022-11-26T08:19:11.659Z,65.90
2022-11-26T08:24:20.091Z,72.40
2022-11-26T08:29:26.305Z,69.70
2022-11-26T08:34:33.791Z,66.80
2022-11-26T08:39:40.032Z,59.80
2022-11-26T08:44:45.966Z,59.00
2022-11-26T08:49:51.690Z,59.70
2022-11-26T08:54:57.432Z,54.80
2022-11-26T09:00:05.461Z,51.60
2022-11-26T09:05:11.424Z,52.50
2022-11-26T09:10:17.688Z,61.20
2022-11-26T09:15:23.694Z,54.10
2022-11-26T09:20:29.513Z,49.30
2022-11-26T09:25:37.680Z,58.00
2022-11-26T09:30:44.293Z,57.40
2022-11-26T09:35:50.584Z,58.30
2022-11-26T09:41:04.970Z,54.50
2022-11-26T09:46:13.771Z,55.20
2022-11-26T09:51:20.725Z,58.90
2022-11-26T09:56:28.229Z,55.60
2022-11-26T10:01:34.723Z,58.90
2022-11-26T10:06:50.634Z,60.90
2022-11-26T10:12:10.944Z,60.30
2022-11-26T10:17:35.952Z,62.00
2022-11-26T10:22:56.747Z,57.30
2022-11-26T10:28:15.289Z,55.30
2022-11-26T10:33:22.038Z,52.20
2022-11-26T10:38:29.134Z,55.60
2022-11-26T10:43:35.588Z,56.40
2022-11-26T10:48:41.849Z,52.70
2022-11-26T10:53:55.154Z,54.10
2022-11-26T10:59:05.897Z,64.70
2022-11-26T11:04:27.614Z,64.30
2022-11-26T11:09:36.075Z,54.90
2022-11-26T11:14:44.082Z,56.20
2022-11-26T11:19:50.061Z,52.70
2022-11-26T11:24:57.684Z,55.70
2022-11-26T11:32:06.571Z,49.90
2022-11-26T11:37:17.667Z,57.80
2022-11-26T11:47:37.179Z,56.00
2022-11-26T11:52:56.176Z,58.10
2022-11-26T11:58:26.653Z,47.70
2022-11-26T12:03:55.693Z,53.10
2022-11-26T12:09:12.234Z,55.90
2022-11-26T12:14:23.169Z,54.10
2022-11-26T12:19:39.659Z,63.00
2022-11-26T12:24:50.893Z,62.10
2022-11-26T12:30:01.287Z,60.50
2022-11-26T12:35:12.704Z,52.90
2022-11-26T12:40:30.615Z,54.10
2022-11-26T12:45:49.213Z,56.30
2022-11-26T12:50:58.840Z,61.40
2022-11-26T12:56:15.015Z,67.90
2022-11-26T13:01:21.107Z,65.80
2022-11-26T13:06:46.736Z,63.40
2022-11-26T13:12:02.012Z,63.30
2022-11-26T13:17:13.393Z,61.60
2022-11-26T13:22:46.281Z,62.70
2022-11-26T13:28:02.320Z,55.50
2022-11-26T13:33:31.124Z,58.50
2022-11-26T13:38:48.139Z,60.00
2022-11-26T13:44:49.513Z,64.60
2022-11-26T13:55:05.842Z,54.60
2022-11-26T14:00:23.283Z,62.50
2022-11-26T14:06:08.296Z,64.70
2022-11-26T14:11:54.538Z,62.30
2022-11-26T14:17:23.659Z,56.50
2022-11-26T14:22:32.070Z,62.80
2022-11-26T14:27:41.558Z,67.90
2022-11-26T14:32:55.269Z,67.50
2022-11-26T14:38:02.399Z,61.70
2022-11-26T14:43:19.739Z,65.10
2022-11-26T14:48:27.925Z,61.70
2022-11-26T14:53:36.370Z,76.60
2022-11-26T14:58:46.002Z,90.80
2022-11-26T15:04:02.942Z,57.80
2022-11-26T15:09:15.762Z,63.90
2022-11-26T15:14:27.624Z,115.80
2022-11-26T15:19:44.591Z,60.20
2022-11-26T15:24:54.539Z,60.00
2022-11-26T15:30:00.877Z,85.60
2022-11-26T15:35:14.882Z,73.10
2022-11-26T15:40:26.412Z,65.80
2022-11-26T15:45:39.306Z,69.90
2022-11-26T15:50:47.087Z,80.30
2022-11-26T15:55:53.797Z,67.60
2022-11-26T16:01:02.561Z,69.90
2022-11-26T16:06:25.732Z,64.30
2022-11-26T16:11:47.422Z,70.60
2022-11-26T16:16:53.740Z,68.60
2022-11-26T16:22:04.792Z,65.60
2022-11-26T16:27:28.246Z,72.40
2022-11-26T16:32:34.016Z,77.00
2022-11-26T16:37:45.081Z,70.40
2022-11-26T16:48:28.869Z,72.30
2022-11-26T16:53:34.513Z,83.60
2022-11-26T16:58:41.095Z,72.20
2022-11-26T17:03:53.858Z,77.40
2022-11-26T17:09:00.274Z,68.70
2022-11-26T17:14:06.170Z,61.00
2022-11-26T17:19:40.950Z,67.10
2022-11-26T17:25:12.629Z,62.50
2022-11-26T17:30:31.774Z,56.40
2022-11-26T17:35:44.176Z,62.90
2022-11-26T17:40:50.304Z,64.50
2022-11-26T17:45:56.986Z,67.70
2022-11-26T17:51:02.788Z,66.30
2022-11-26T17:56:17.188Z,64.90
2022-11-26T18:01:23.181Z,62.00
2022-11-26T18:06:37.713Z,60.70
2022-11-26T18:11:46.878Z,61.90
2022-11-26T18:16:53.144Z,58.00
2022-11-26T18:21:59.008Z,58.50
2022-11-26T18:27:05.770Z,58.00
2022-11-26T18:32:12.774Z,61.00
2022-11-26T18:37:19.251Z,55.30
2022-11-26T18:42:40.809Z,62.10
2022-11-26T18:47:46.786Z,56.00
2022-11-26T18:52:55.155Z,59.10
2022-11-26T18:58:05.269Z,58.80
2022-11-26T19:03:14.477Z,53.40
2022-11-26T19:08:20.470Z,56.90
2022-11-26T19:13:27.298Z,63.00
2022-11-26T19:18:33.179Z,67.10
2022-11-26T19:23:38.889Z,70.00
2022-11-26T19:28:45.802Z,68.50
2022-11-26T19:33:58.224Z,69.80
2022-11-26T19:39:04.899Z,68.30
2022-11-26T19:44:10.737Z,66.30
2022-11-26T19:49:16.748Z,63.10
2022-11-26T19:54:23.396Z,64.10
2022-11-26T19:59:29.322Z,146.30
2022-11-26T20:04:35.307Z,136.60
2022-11-26T20:09:41.551Z,88.00
2022-11-26T20:14:49.240Z,75.90
2022-11-26T20:19:55.051Z,73.90
2022-11-26T20:25:01.117Z,99.50
2022-11-26T20:30:09.161Z,71.10
2022-11-26T20:35:15.001Z,61.50
2022-11-26T20:40:21.116Z,74.90
2022-11-26T20:45:26.907Z,71.30
2022-11-26T20:50:32.842Z,75.50
2022-11-26T20:55:38.804Z,69.00
2022-11-26T21:00:44.744Z,59.20
2022-11-26T21:05:50.685Z,63.40
2022-11-26T21:10:56.824Z,70.50
2022-11-26T21:16:05.951Z,63.70
2022-11-26T21:21:15.087Z,72.20
2022-11-26T21:26:22.976Z,74.00
2022-11-26T21:31:31.684Z,72.30
2022-11-26T21:36:38.470Z,71.20
2022-11-26T21:41:44.588Z,64.10
2022-11-26T21:46:50.633Z,65.00
2022-11-26T21:51:56.690Z,72.10
2022-11-26T21:57:03.272Z,62.80
2022-11-26T22:02:10.264Z,62.60
2022-11-26T22:07:16.417Z,70.40
2022-11-26T22:12:22.664Z,60.90
2022-11-26T22:17:28.664Z,56.60
2022-11-26T22:22:34.671Z,51.80
2022-11-26T22:27:40.551Z,49.10
2022-11-26T22:32:46.852Z,49.70
2022-11-26T22:37:53.685Z,52.40
2022-11-26T22:47:43.268Z,54.60
2022-11-26T22:52:49.754Z,63.60
2022-11-26T22:57:55.534Z,77.60
2022-11-26T23:03:01.850Z,72.60
2022-11-26T23:08:08.163Z,78.40
2022-11-26T23:13:16.178Z,83.40
2022-11-26T23:18:21.998Z,80.70
2022-11-26T23:23:27.918Z,88.30
2022-11-26T23:28:34.869Z,83.00
2022-11-26T23:33:40.920Z,82.90
2022-11-26T23:38:46.840Z,82.00
2022-11-26T23:43:52.692Z,97.20
2022-11-26T23:48:58.679Z,82.60
2022-11-26T23:54:04.627Z,75.20
2022-11-26T23:59:11.374Z,82.30
